createdAt,value
2023-05-08T00:02:17.252Z,13.53
2023-05-08T00:05:02.339Z,13.73
2023-05-08T00:07:47.534Z,12.90
2023-05-08T00:10:33.316Z,13.90
2023-05-08T00:13:18.559Z,12.40
2023-05-08T00:16:03.861Z,13.90
2023-05-08T00:18:49.287Z,13.10
2023-05-08T00:21:34.748Z,13.60
2023-05-08T00:24:19.961Z,12.40
2023-05-08T00:27:05.750Z,12.97
2023-05-08T00:29:50.945Z,12.70
2023-05-08T00:32:36.151Z,12.80
2023-05-08T00:35:21.501Z,12.47
2023-05-08T00:38:07.223Z,13.63
2023-05-08T00:40:52.350Z,13.67
2023-05-08T00:43:38.203Z,13.97
2023-05-08T00:46:23.522Z,13.50
2023-05-08T00:49:11.378Z,14.40
2023-05-08T00:51:57.155Z,12.93
2023-05-08T00:54:42.652Z,13.00
2023-05-08T00:57:31.714Z,13.23
2023-05-08T01:00:18.552Z,14.60
2023-05-08T01:03:04.752Z,13.57
2023-05-08T01:05:50.621Z,13.50
2023-05-08T01:08:36.447Z,14.33
2023-05-08T01:11:28.828Z,13.47
2023-05-08T01:14:39.968Z,14.77
2023-05-08T01:17:53.214Z,14.23
2023-05-08T01:21:06.059Z,14.60
2023-05-08T01:24:42.278Z,14.10
2023-05-08T01:28:21.790Z,14.60
2023-05-08T01:31:37.540Z,15.77
2023-05-08T01:34:31.174Z,14.17
2023-05-08T01:37:23.193Z,15.17
2023-05-08T01:40:17.377Z,14.10
2023-05-08T01:43:19.798Z,14.37
2023-05-08T01:46:09.527Z,13.97
2023-05-08T01:49:22.145Z,13.90
2023-05-08T01:52:35.398Z,13.80
2023-05-08T01:55:26.269Z,14.17
2023-05-08T01:58:12.575Z,12.97
2023-05-08T02:01:01.797Z,13.73
2023-05-08T02:03:48.859Z,13.97
2023-05-08T02:06:37.039Z,13.57
2023-05-08T02:09:24.469Z,13.93
2023-05-08T02:12:12.076Z,14.03
2023-05-08T02:14:58.993Z,14.60
2023-05-08T02:17:48.678Z,14.00
2023-05-08T02:20:34.433Z,14.40
2023-05-08T02:23:22.359Z,13.60
2023-05-08T02:26:09.433Z,14.57
2023-05-08T02:28:55.898Z,14.47
2023-05-08T02:31:42.181Z,14.03
2023-05-08T02:34:29.793Z,14.43
2023-05-08T02:37:17.492Z,14.23
2023-05-08T02:40:05.736Z,14.63
2023-05-08T02:42:51.395Z,16.57
2023-05-08T02:45:46.487Z,15.00
2023-05-08T02:48:44.464Z,15.70
2023-05-08T02:51:50.171Z,15.00
2023-05-08T02:54:43.728Z,14.03
2023-05-08T02:57:44.667Z,15.40
2023-05-08T03:00:42.526Z,14.30
2023-05-08T03:03:36.412Z,15.07
2023-05-08T03:06:24.102Z,14.50
2023-05-08T03:09:18.683Z,14.00
2023-05-08T03:12:09.778Z,14.97
2023-05-08T03:15:06.606Z,14.87
2023-05-08T03:17:58.473Z,15.40
2023-05-08T03:20:47.642Z,15.37
2023-05-08T03:23:35.941Z,15.30
2023-05-08T03:26:21.928Z,15.43
2023-05-08T03:29:08.648Z,15.40
2023-05-08T03:31:54.718Z,15.13
2023-05-08T03:34:40.948Z,15.20
2023-05-08T03:37:27.959Z,15.27
2023-05-08T03:40:14.038Z,15.97
2023-05-08T03:43:01.019Z,14.97
2023-05-08T03:45:47.489Z,15.23
2023-05-08T03:48:34.661Z,16.00
2023-05-08T03:51:22.074Z,16.80
2023-05-08T03:54:07.970Z,16.80
2023-05-08T03:56:54.376Z,16.57
2023-05-08T04:00:08.000Z,17.40
2023-05-08T04:03:16.964Z,17.57
2023-05-08T04:06:30.616Z,17.87
2023-05-08T04:09:31.292Z,17.70
2023-05-08T04:12:54.699Z,18.30
2023-05-08T04:15:52.771Z,19.27
2023-05-08T04:18:46.047Z,19.33
2023-05-08T04:21:35.192Z,23.30
2023-05-08T04:24:22.548Z,20.87
2023-05-08T04:27:09.891Z,22.80
2023-05-08T04:29:56.081Z,22.33
2023-05-08T04:32:43.592Z,21.40
2023-05-08T04:35:33.276Z,23.17
2023-05-08T04:38:18.690Z,21.87
2023-05-08T04:41:04.565Z,23.50
2023-05-08T04:43:50.521Z,25.13
2023-05-08T04:46:36.728Z,25.93
2023-05-08T04:49:22.066Z,22.87
2023-05-08T04:52:08.912Z,24.63
2023-05-08T04:54:54.519Z,23.37
2023-05-08T04:57:40.303Z,22.73
2023-05-08T05:00:25.997Z,24.23
2023-05-08T05:03:11.739Z,25.60
2023-05-08T05:06:01.424Z,24.80
2023-05-08T05:08:47.122Z,22.93
2023-05-08T05:11:32.285Z,23.83
2023-05-08T05:14:17.936Z,26.30
2023-05-08T05:17:03.807Z,27.13
2023-05-08T05:19:51.464Z,25.43
2023-05-08T05:22:37.175Z,23.17
2023-05-08T05:25:22.845Z,25.37
2023-05-08T05:28:08.255Z,23.60
2023-05-08T05:30:53.795Z,25.40
2023-05-08T05:33:39.050Z,24.60
2023-05-08T05:36:24.329Z,23.93
2023-05-08T05:39:09.572Z,26.37
2023-05-08T05:41:54.648Z,23.97
2023-05-08T05:44:39.905Z,24.63
2023-05-08T05:47:25.449Z,22.47
2023-05-08T05:50:11.524Z,23.90
2023-05-08T05:52:57.136Z,24.90
2023-05-08T05:55:42.440Z,25.10
2023-05-08T05:58:28.406Z,23.57
2023-05-08T06:01:14.315Z,23.93
2023-05-08T06:04:00.021Z,24.10
2023-05-08T06:06:45.679Z,20.20
2023-05-08T06:09:30.802Z,20.77
2023-05-08T06:12:16.324Z,22.20
2023-05-08T06:15:01.542Z,24.37
2023-05-08T06:17:47.007Z,24.43
2023-05-08T06:20:32.419Z,23.13
2023-05-08T06:23:18.913Z,24.70
2023-05-08T06:26:04.367Z,24.83
2023-05-08T06:28:49.760Z,23.43
2023-05-08T06:31:35.253Z,21.50
2023-05-08T06:34:20.219Z,22.33
2023-05-08T06:37:05.587Z,22.03
2023-05-08T06:40:00.265Z,21.53
2023-05-08T06:42:56.127Z,20.70
2023-05-08T06:45:43.707Z,21.73
2023-05-08T06:48:29.524Z,21.60
2023-05-08T06:51:14.821Z,20.80
2023-05-08T06:54:00.344Z,19.03
2023-05-08T06:56:45.844Z,21.00
2023-05-08T06:59:31.266Z,20.53
2023-05-08T07:02:16.775Z,21.30
2023-05-08T07:05:02.029Z,20.30
2023-05-08T07:07:47.470Z,22.63
2023-05-08T07:10:33.395Z,22.20
2023-05-08T07:13:18.548Z,21.80
2023-05-08T07:16:08.707Z,21.63
2023-05-08T07:18:54.668Z,21.97
2023-05-08T07:21:40.297Z,21.77
2023-05-08T07:24:25.714Z,21.70
2023-05-08T07:27:10.888Z,22.67
2023-05-08T07:29:56.061Z,22.87
2023-05-08T07:32:41.507Z,22.97
2023-05-08T07:35:26.840Z,21.37
2023-05-08T07:38:12.390Z,20.83
2023-05-08T07:40:58.160Z,23.63
2023-05-08T07:43:43.459Z,22.00
2023-05-08T07:46:29.079Z,20.77
2023-05-08T07:49:14.143Z,20.13
2023-05-08T07:51:59.489Z,20.90
2023-05-08T07:54:44.883Z,18.83
2023-05-08T07:57:39.785Z,19.83
2023-05-08T08:00:25.855Z,19.43
2023-05-08T08:03:11.349Z,18.40
2023-05-08T08:05:56.804Z,19.37
2023-05-08T08:08:41.910Z,17.80
2023-05-08T08:11:27.304Z,17.60
2023-05-08T08:14:12.745Z,17.65
2023-05-08T08:16:58.040Z,17.42
2023-05-08T08:19:43.411Z,17.88
2023-05-08T08:22:29.058Z,16.77
2023-05-08T08:25:15.062Z,16.67
2023-05-08T08:28:00.464Z,17.30
2023-05-08T08:30:45.708Z,15.57
2023-05-08T08:33:30.998Z,15.45
2023-05-08T08:36:16.302Z,14.70
2023-05-08T08:39:01.421Z,15.07
2023-05-08T08:41:46.741Z,14.80
2023-05-08T08:44:32.362Z,15.75
2023-05-08T08:47:19.462Z,15.63
2023-05-08T08:50:05.488Z,15.85
2023-05-08T08:53:01.250Z,15.38
2023-05-08T08:55:50.319Z,14.35
2023-05-08T08:58:44.745Z,15.23
2023-05-08T09:01:33.868Z,14.82
2023-05-08T09:04:19.139Z,15.30
2023-05-08T09:07:05.273Z,15.27
2023-05-08T09:09:50.851Z,14.73
2023-05-08T09:12:36.010Z,14.35
2023-05-08T09:15:21.592Z,14.88
2023-05-08T09:18:07.112Z,15.13
2023-05-08T09:20:53.023Z,14.88
2023-05-08T09:24:00.148Z,14.93
2023-05-08T09:26:45.305Z,15.48
2023-05-08T09:29:30.812Z,15.02
2023-05-08T09:32:18.634Z,15.10
2023-05-08T09:35:04.989Z,15.90
2023-05-08T09:37:50.396Z,15.25
2023-05-08T09:40:35.711Z,14.43
2023-05-08T09:43:20.679Z,14.18
2023-05-08T09:46:23.043Z,15.98
2023-05-08T09:49:17.345Z,14.93
2023-05-08T09:52:03.184Z,15.57
2023-05-08T09:54:56.112Z,15.30
2023-05-08T09:57:59.005Z,14.77
2023-05-08T10:00:44.515Z,15.70
2023-05-08T10:03:49.646Z,13.73
2023-05-08T10:06:34.686Z,16.15
2023-05-08T10:09:19.990Z,14.55
2023-05-08T10:12:06.036Z,14.05
2023-05-08T10:14:51.538Z,13.40
2023-05-08T10:18:02.440Z,12.45
2023-05-08T10:20:48.751Z,12.35
2023-05-08T10:23:37.737Z,12.40
2023-05-08T10:26:30.541Z,12.43
2023-05-08T10:29:25.081Z,11.10
2023-05-08T10:32:12.156Z,11.77
2023-05-08T10:35:00.356Z,10.88
2023-05-08T10:37:46.299Z,12.15
2023-05-08T10:40:31.802Z,11.20
2023-05-08T10:43:18.552Z,11.35
2023-05-08T10:46:11.773Z,11.32
2023-05-08T10:49:12.252Z,10.30
2023-05-08T10:52:27.739Z,10.63
2023-05-08T10:55:28.325Z,10.98
2023-05-08T10:58:28.272Z,11.25
2023-05-08T11:01:14.759Z,10.65
2023-05-08T11:04:00.379Z,11.50
2023-05-08T11:06:47.607Z,10.95
2023-05-08T11:09:42.074Z,10.80
2023-05-08T11:12:29.305Z,10.82
2023-05-08T11:15:14.582Z,10.65
2023-05-08T11:18:04.380Z,9.82
2023-05-08T11:21:03.645Z,9.25
2023-05-08T11:23:57.295Z,8.98
2023-05-08T11:26:48.276Z,9.50
2023-05-08T11:29:33.588Z,10.07
2023-05-08T11:32:19.160Z,8.40
2023-05-08T11:35:04.949Z,8.70
2023-05-08T11:38:19.292Z,9.07
2023-05-08T11:41:23.653Z,8.82
2023-05-08T11:44:09.027Z,10.40
2023-05-08T11:46:55.948Z,10.43
2023-05-08T11:49:42.241Z,10.00
2023-05-08T11:52:28.720Z,10.25
2023-05-08T11:55:14.171Z,10.63
2023-05-08T11:57:59.451Z,10.20
2023-05-08T12:00:46.069Z,10.13
2023-05-08T12:03:31.232Z,10.02
2023-05-08T12:06:18.796Z,10.02
2023-05-08T12:09:11.318Z,9.55
2023-05-08T12:11:57.571Z,9.95
2023-05-08T12:14:42.811Z,9.38
2023-05-08T12:17:28.046Z,10.48
2023-05-08T12:20:18.727Z,10.35
2023-05-08T12:23:04.666Z,9.95
2023-05-08T12:25:53.781Z,9.82
2023-05-08T12:28:40.404Z,9.55
2023-05-08T12:31:26.013Z,10.10
2023-05-08T12:34:12.413Z,9.98
2023-05-08T12:37:04.699Z,9.25
2023-05-08T12:39:50.038Z,10.10
2023-05-08T12:43:03.509Z,10.00
2023-05-08T12:45:51.078Z,10.27
2023-05-08T12:48:36.599Z,10.07
2023-05-08T12:51:30.264Z,10.18
2023-05-08T12:54:15.883Z,10.00
2023-05-08T12:57:10.467Z,9.80
2023-05-08T13:00:05.161Z,10.30
2023-05-08T13:02:54.803Z,9.52
2023-05-08T13:05:45.066Z,9.32
2023-05-08T13:08:35.664Z,9.95
2023-05-08T13:11:33.603Z,9.93
2023-05-08T13:14:18.863Z,9.63
2023-05-08T13:17:04.140Z,9.65
2023-05-08T13:19:49.387Z,9.23
2023-05-08T13:22:34.829Z,8.65
2023-05-08T13:25:20.115Z,8.70
2023-05-08T13:28:06.452Z,8.35
2023-05-08T13:30:52.024Z,9.15
2023-05-08T13:33:37.339Z,9.75
2023-05-08T13:36:23.275Z,8.98
2023-05-08T13:39:08.436Z,8.75
2023-05-08T13:41:53.607Z,9.10
2023-05-08T13:44:38.778Z,9.85
2023-05-08T13:47:24.373Z,8.95
2023-05-08T13:50:11.144Z,9.20
2023-05-08T13:52:56.443Z,9.07
2023-05-08T13:55:41.721Z,9.52
2023-05-08T13:58:26.883Z,8.60
2023-05-08T14:01:25.881Z,9.48
2023-05-08T14:04:12.694Z,9.15
2023-05-08T14:06:58.516Z,8.90
2023-05-08T14:09:43.515Z,8.95
2023-05-08T14:12:29.080Z,8.30
2023-05-08T14:15:14.646Z,8.32
2023-05-08T14:18:00.336Z,7.97
2023-05-08T14:20:48.987Z,8.00
2023-05-08T14:23:37.024Z,7.75
2023-05-08T14:26:22.085Z,7.75
2023-05-08T14:29:07.682Z,8.13
2023-05-08T14:31:52.923Z,7.38
2023-05-08T14:34:38.240Z,6.95
2023-05-08T14:37:23.449Z,7.53
2023-05-08T14:40:09.406Z,7.70
2023-05-08T14:42:54.761Z,6.82
2023-05-08T14:45:39.904Z,6.60
2023-05-08T14:48:25.167Z,6.93
2023-05-08T14:51:10.736Z,7.35
2023-05-08T14:53:56.962Z,6.03
2023-05-08T14:56:47.274Z,7.07
2023-05-08T14:59:33.194Z,5.97
2023-05-08T15:02:18.405Z,6.40
2023-05-08T15:05:08.364Z,5.82
2023-05-08T15:07:56.527Z,5.93
2023-05-08T15:10:42.144Z,6.07
2023-05-08T15:13:28.032Z,5.78
2023-05-08T15:16:13.726Z,5.50
2023-05-08T15:18:59.353Z,5.32
2023-05-08T15:21:44.898Z,5.10
2023-05-08T15:24:30.048Z,5.40
2023-05-08T15:27:15.411Z,5.20
2023-05-08T15:30:00.875Z,6.47
2023-05-08T15:32:46.294Z,5.25
2023-05-08T15:35:32.053Z,4.60
2023-05-08T15:38:17.442Z,4.85
2023-05-08T15:41:02.600Z,5.68
2023-05-08T15:43:47.788Z,4.82
2023-05-08T15:46:33.725Z,5.32
2023-05-08T15:49:19.286Z,4.60
2023-05-08T15:52:04.709Z,5.00
2023-05-08T15:54:50.235Z,5.25
2023-05-08T15:57:35.630Z,4.70
2023-05-08T16:00:23.019Z,4.70
2023-05-08T16:03:10.487Z,4.55
2023-05-08T16:05:55.910Z,4.60
2023-05-08T16:08:42.016Z,4.85
2023-05-08T16:11:33.583Z,4.60
2023-05-08T16:14:19.010Z,5.70
2023-05-08T16:17:04.519Z,4.50
2023-05-08T16:19:49.663Z,5.00
2023-05-08T16:22:35.036Z,4.63
2023-05-08T16:25:20.685Z,4.95
2023-05-08T16:28:06.332Z,4.70
2023-05-08T16:30:51.814Z,5.10
2023-05-08T16:33:38.808Z,4.60
2023-05-08T16:36:24.351Z,4.70
2023-05-08T16:39:09.682Z,4.82
2023-05-08T16:41:55.368Z,4.95
2023-05-08T16:44:40.577Z,5.10
2023-05-08T16:47:25.936Z,5.13
2023-05-08T16:50:11.733Z,5.00
2023-05-08T16:52:57.024Z,5.85
2023-05-08T16:55:42.401Z,4.65
2023-05-08T16:58:29.664Z,5.30
2023-05-08T17:01:16.747Z,4.90
2023-05-08T17:04:01.986Z,5.03
2023-05-08T17:14:21.661Z,6.40
2023-05-08T17:17:07.501Z,4.78
2023-05-08T17:19:53.177Z,5.30
2023-05-08T17:22:43.925Z,4.60
2023-05-08T17:25:29.911Z,5.00
2023-05-08T17:28:15.426Z,4.25
2023-05-08T17:31:00.918Z,4.00
2023-05-08T17:33:46.084Z,3.92
2023-05-08T17:36:31.542Z,4.05
2023-05-08T17:39:17.302Z,3.92
2023-05-08T17:42:05.702Z,4.18
2023-05-08T17:44:52.971Z,3.90
2023-05-08T17:47:38.980Z,3.40
2023-05-08T17:50:25.053Z,3.13
2023-05-08T17:53:11.038Z,3.00
2023-05-08T17:55:56.700Z,2.85
2023-05-08T17:58:42.577Z,2.72
2023-05-08T18:01:28.130Z,2.50
2023-05-08T18:04:13.912Z,2.75
2023-05-08T18:06:58.955Z,3.08
2023-05-08T18:09:44.244Z,3.25
2023-05-08T18:12:31.650Z,2.97
2023-05-08T18:15:17.272Z,2.25
2023-05-08T18:18:03.081Z,2.30
2023-05-08T18:20:48.798Z,3.38
2023-05-08T18:23:34.197Z,2.40
2023-05-08T18:26:21.431Z,3.70
2023-05-08T18:29:07.378Z,3.25
2023-05-08T18:31:53.108Z,2.13
2023-05-08T18:34:38.231Z,1.50
2023-05-08T18:37:23.959Z,2.00
2023-05-08T18:40:11.209Z,1.85
2023-05-08T18:42:56.818Z,2.20
2023-05-08T18:45:42.435Z,1.50
2023-05-08T18:48:29.015Z,1.98
2023-05-08T18:51:14.374Z,1.77
2023-05-08T18:53:59.974Z,1.75
2023-05-08T18:56:45.524Z,1.48
2023-05-08T18:59:31.104Z,1.60
2023-05-08T19:02:16.759Z,4.78
2023-05-08T19:05:02.302Z,2.33
2023-05-08T19:07:47.656Z,2.80
2023-05-08T19:10:33.694Z,1.58
2023-05-08T19:13:19.422Z,2.72
2023-05-08T19:16:05.342Z,1.70
2023-05-08T19:18:50.632Z,3.28
2023-05-08T19:21:36.446Z,2.65
2023-05-08T19:24:21.769Z,6.05
2023-05-08T19:27:07.603Z,1.75
2023-05-08T19:29:52.933Z,1.75
2023-05-08T19:32:38.574Z,2.58
2023-05-08T19:35:23.847Z,1.90
2023-05-08T19:38:09.137Z,2.70
2023-05-08T19:40:57.304Z,2.55
2023-05-08T19:43:42.847Z,2.08
2023-05-08T19:46:28.200Z,2.05
2023-05-08T19:49:13.448Z,3.47
2023-05-08T19:51:59.085Z,3.00
2023-05-08T19:54:44.589Z,2.20
2023-05-08T19:57:29.781Z,2.03
2023-05-08T20:00:15.625Z,3.15
2023-05-08T20:03:01.028Z,3.00
2023-05-08T20:05:46.636Z,2.58
2023-05-08T20:08:32.268Z,3.05
2023-05-08T20:11:17.822Z,2.08
2023-05-08T20:14:02.991Z,3.50
2023-05-08T20:16:48.652Z,2.90
2023-05-08T20:19:33.678Z,2.35
2023-05-08T20:22:19.111Z,1.73
2023-05-08T20:25:05.116Z,2.17
2023-05-08T20:27:50.516Z,1.77
2023-05-08T20:30:35.972Z,4.68
2023-05-08T20:33:21.393Z,2.00
2023-05-08T20:36:06.833Z,2.92
2023-05-08T20:38:52.710Z,1.77
2023-05-08T20:41:39.051Z,2.97
2023-05-08T20:44:24.649Z,2.00
2023-05-08T20:47:10.289Z,2.80
2023-05-08T20:49:55.904Z,3.20
2023-05-08T20:52:42.570Z,1.83
2023-05-08T20:55:28.258Z,1.77
2023-05-08T20:58:13.436Z,1.92
2023-05-08T21:00:58.869Z,2.45
2023-05-08T21:03:43.971Z,2.70
2023-05-08T21:06:29.364Z,2.17
2023-05-08T21:09:14.574Z,2.08
2023-05-08T21:11:59.831Z,3.97
2023-05-08T21:14:44.946Z,2.53
2023-05-08T21:17:30.632Z,3.20
2023-05-08T21:20:16.479Z,3.08
2023-05-08T21:23:02.262Z,2.92
2023-05-08T21:25:48.642Z,4.85
2023-05-08T21:28:33.949Z,3.55
2023-05-08T21:31:19.675Z,2.63
2023-05-08T21:34:05.279Z,2.60
2023-05-08T21:36:50.943Z,3.15
2023-05-08T21:39:37.406Z,3.42
2023-05-08T21:42:22.742Z,2.72
2023-05-08T21:45:08.427Z,2.63
2023-05-08T21:47:53.688Z,3.15
2023-05-08T21:50:39.042Z,3.10
2023-05-08T21:53:24.282Z,3.85
2023-05-08T21:56:09.576Z,5.45
2023-05-08T21:58:55.001Z,5.57
2023-05-08T22:01:40.463Z,6.45
2023-05-08T22:04:25.790Z,3.00
2023-05-08T22:07:11.263Z,4.50
2023-05-08T22:09:56.016Z,4.63
2023-05-08T22:12:41.644Z,3.30
2023-05-08T22:15:30.750Z,4.20
2023-05-08T22:18:16.263Z,3.20
2023-05-08T22:21:01.570Z,2.67
2023-05-08T22:23:46.840Z,4.65
2023-05-08T22:26:32.333Z,3.00
2023-05-08T22:29:17.745Z,3.67
2023-05-08T22:32:03.055Z,3.28
2023-05-08T22:34:48.683Z,2.75
2023-05-08T22:37:34.054Z,3.17
2023-05-08T22:40:20.647Z,2.75
2023-05-08T22:43:06.286Z,2.70
2023-05-08T22:45:51.907Z,3.63
2023-05-08T22:48:37.304Z,2.60
2023-05-08T22:51:22.882Z,3.45
2023-05-08T22:54:08.237Z,2.63
2023-05-08T22:56:53.580Z,4.75
2023-05-08T22:59:38.710Z,3.88
2023-05-08T23:02:24.399Z,2.92
2023-05-08T23:05:09.676Z,2.90
2023-05-08T23:07:54.881Z,3.10
2023-05-08T23:10:40.130Z,3.65
2023-05-08T23:13:25.883Z,3.67
2023-05-08T23:16:11.241Z,2.50
2023-05-08T23:18:56.806Z,3.25
2023-05-08T23:21:42.036Z,2.97
2023-05-08T23:24:27.247Z,3.50
2023-05-08T23:27:12.453Z,5.75
2023-05-08T23:29:57.685Z,2.80
2023-05-08T23:32:44.140Z,2.88
2023-05-08T23:35:29.401Z,2.72
2023-05-08T23:38:14.690Z,3.17
2023-05-08T23:41:00.626Z,2.97
2023-05-08T23:43:46.264Z,4.95
2023-05-08T23:46:31.851Z,3.10
2023-05-08T23:49:17.206Z,3.35
2023-05-08T23:52:02.649Z,2.60
2023-05-08T23:54:49.018Z,3.05
2023-05-08T23:57:34.784Z,2.90
